Lewisville, TX

2:31 PM CDT on March 28, 2017 (GMT -0500)
Reserves at Timbercreek | | Change Station

Elev 541 ft 33.03 °N, 97.02 °W | Updated 35 minutes ago

Overcast
Overcast
74.8 °F
Feels Like 76 °F
N
3.0
Wind Variable Wind from ENE

Today
High -- | Low -- °F
--% Chance of Precip.
Yesterday
High -- | Low -- °F
Precip. -- in
Pressure 29.76 in
Visibility 5.0 miles
Clouds Scattered Clouds 2400 ft
Scattered Clouds 3500 ft
Mostly Cloudy 4400 ft
Heat Index 76 °F
Dew Point 64 °F
Humidity 70%
Rainfall 0.00 in
Snow Depth Not available.
7:20 AM 7:45 PM
New Moon, 1% visible
SPECI KDFW 281905Z 13016G21KT 5SM HZ SCT024 SCT035 BKN044 26/19 A2976 RMK AO2 PRESFR T02610194
Pressure 29.76 in
Visibility 5.0 miles
Clouds Scattered Clouds 2400 ft
Scattered Clouds 3500 ft
Mostly Cloudy 4400 ft
Heat Index 76 °F
Dew Point 64 °F
Humidity 70%
Rainfall 0.00 in
Snow Depth Not available.
7:20 AM 7:45 PM
New Moon, 1% visible
SPECI KDFW 281905Z 13016G21KT 5SM HZ SCT024 SCT035 BKN044 26/19 A2976 RMK AO2 PRESFR T02610194

Get Severe Weather Alerts

Thanks for signing up!

Be on the lookout for a verification email in your inbox.

You'll start receiving the daily forecast at 8 AM.

×

10-Day Weather Forecast

Almanac

Astronomy

Mar. 28, 2017 Rise Set
Actual Time
Civil Twilight
Nautical Twilight
Astronomical Twilight
Moon
Length of Visible Light
Length of Day
Tomorrow will be .
, % of the Moon is Illuminated

Today's Extremes

State Highs State Lows

Community

WunderPhotos

Upload Photos

1,962,540 photos uploaded!

WunderBlog® & News

Nearby

Air Quality

  Air Quality AQ Index Pollutant
Not available.

Snow Depth

Station Depth Elevation

Earthquake Activity

City Distance Mag. Time & Date
Minimum magnitude displayed is 2.5.

Earthquake Activity

City Distance Mag. Time & Date
Minimum magnitude displayed is 2.5.

Coastal Water Temperatures

Place Temperature

Stations

Nearby Weather Stations

Station Location Temp. Windchill Dew Point Humidity Wind Precip. Elev Updated Type
                   

Watches & Warnings

There are currently no watches in effect.